Time;durP1;ratioP1;P1;durP2;ratioP2;P2;SDS_P1;SDS_P2;PMS_P1;PMS_P2;Temp;Humidity;BMP_temperature;BMP_pressure;BME280_temperature;BME280_humidity;BME280_pressure;Samples;Min_cycle;Max_cycle;Signal;HPM_P1;HPM_P2
2021/12/04 00:00:48;;;;;;;2.90;1.70;;;14.40;76.20;;;;;;4170759;28;20123;-71
2021/12/04 00:02:54;;;;;;;2.60;1.67;;;14.40;76.70;;;;;;4188702;28;20467;-71
2021/12/04 00:04:59;;;;;;;1.92;1.48;;;14.40;76.60;;;;;;4188240;28;20115;-72
2021/12/04 00:07:04;;;;;;;1.95;1.35;;;14.40;76.90;;;;;;4188145;28;20120;-71
2021/12/04 00:09:08;;;;;;;2.35;1.70;;;14.40;76.80;;;;;;4188244;28;20124;-71
2021/12/04 00:11:11;;;;;;;2.88;1.67;;;14.40;77.00;;;;;;4187726;28;20483;-71
2021/12/04 00:13:14;;;;;;;2.53;1.60;;;14.40;77.10;;;;;;4187962;28;20076;-72
2021/12/04 00:15:18;;;;;;;2.13;1.42;;;14.40;77.00;;;;;;4187153;28;20301;-70
2021/12/04 00:17:21;;;;;;;2.40;1.73;;;14.40;77.20;;;;;;4187273;28;20400;-71
2021/12/04 00:19:27;;;;;;;1.92;1.40;;;14.40;77.10;;;;;;4187658;28;20077;-71
2021/12/04 00:21:29;;;;;;;;;;;14.40;77.40;;;;;;4170562;28;20112;-70
2021/12/04 00:23:32;;;;;;;1.88;1.35;;;14.40;77.40;;;;;;4187480;28;20209;-71
2021/12/04 00:25:38;;;;;;;1.42;1.08;;;14.40;77.60;;;;;;4186941;28;20294;-71
2021/12/04 00:27:41;;;;;;;2.03;1.30;;;14.40;77.80;;;;;;4187766;28;20265;-70
2021/12/04 00:29:44;;;;;;;2.30;1.45;;;14.40;77.90;;;;;;4187637;28;20072;-71
2021/12/04 00:31:49;;;;;;;2.03;1.33;;;14.40;78.30;;;;;;4187245;28;20352;-72
2021/12/04 00:33:54;;;;;;;1.60;1.10;;;14.40;78.30;;;;;;4187374;28;20053;-71
2021/12/04 00:36:01;;;;;;;1.02;0.90;;;14.40;78.20;;;;;;4187142;28;20068;-71
2021/12/04 00:43:18;;;;;;;1.70;1.10;;;14.40;78.50;;;;;;4187420;28;20069;-71
2021/12/04 00:49:59;;;;;;;1.40;1.10;;;14.50;78.60;;;;;;4187979;28;20290;-71
2021/12/04 00:52:04;;;;;;;1.27;0.90;;;14.40;78.80;;;;;;4187313;28;20396;-71
2021/12/04 00:54:10;;;;;;;2.10;1.13;;;14.40;79.60;;;;;;4160586;28;20060;-72
2021/12/04 00:56:13;;;;;;;2.08;1.00;;;14.40;79.40;;;;;;4176307;28;20381;-71
2021/12/04 00:58:16;;;;;;;1.67;0.90;;;14.50;79.50;;;;;;4189986;28;20405;-72
2021/12/04 01:00:19;;;;;;;1.20;0.80;;;14.50;79.70;;;;;;4190654;28;20316;-71
2021/12/04 01:02:22;;;;;;;0.98;0.80;;;14.50;80.00;;;;;;4189631;28;20080;-71
2021/12/04 01:04:26;;;;;;;1.17;0.70;;;14.50;80.10;;;;;;4190192;28;20059;-71
2021/12/04 01:06:29;;;;;;;1.70;1.00;;;14.50;79.90;;;;;;4190363;28;20074;-71
2021/12/04 01:08:33;;;;;;;1.52;0.82;;;14.50;80.10;;;;;;4175343;28;20125;-72
2021/12/04 01:10:36;;;;;;;1.75;0.80;;;14.50;81.00;;;;;;4173210;28;20310;-71
2021/12/04 01:12:40;;;;;;;1.20;0.70;;;14.50;81.10;;;;;;4190630;28;20124;-72
2021/12/04 01:14:43;;;;;;;1.73;0.73;;;14.50;81.30;;;;;;4190395;28;20288;-72
2021/12/04 01:16:47;;;;;;;1.10;0.80;;;14.50;81.70;;;;;;4190147;28;20065;-70
2021/12/04 01:18:50;;;;;;;1.40;0.80;;;14.50;81.30;;;;;;4189949;28;20125;-72
2021/12/04 01:20:53;;;;;;;2.10;0.80;;;14.50;80.90;;;;;;4190013;28;20123;-71
2021/12/04 01:22:56;;;;;;;0.93;0.70;;;14.50;82.20;;;;;;4189714;28;20049;-71
2021/12/04 01:25:01;;;;;;;1.30;0.60;;;14.50;81.50;;;;;;4189780;28;20132;-71
2021/12/04 01:27:04;;;;;;;3.28;0.80;;;14.50;82.10;;;;;;4190022;28;20121;-71
2021/12/04 01:29:07;;;;;;;0.80;0.70;;;14.60;82.20;;;;;;4189886;28;20080;-72
2021/12/04 01:31:10;;;;;;;1.73;0.60;;;14.60;82.60;;;;;;4190157;28;20065;-70
2021/12/04 01:33:13;;;;;;;0.70;0.60;;;14.60;82.90;;;;;;4189145;28;20115;-71
2021/12/04 01:35:16;;;;;;;1.60;0.60;;;14.60;82.70;;;;;;4189805;28;20073;-71
2021/12/04 01:37:19;;;;;;;0.90;0.70;;;14.60;82.20;;;;;;4172667;28;20117;-72
2021/12/04 01:39:22;;;;;;;1.45;0.65;;;14.60;82.60;;;;;;4190001;28;20060;-71
2021/12/04 01:41:27;;;;;;;2.70;1.00;;;14.60;82.40;;;;;;4190579;28;20095;-71
2021/12/04 01:43:30;;;;;;;1.08;0.60;;;14.60;82.20;;;;;;4189776;28;20400;-71
2021/12/04 01:45:33;;;;;;;0.98;0.63;;;14.60;82.20;;;;;;4189760;28;20095;-71
2021/12/04 01:47:36;;;;;;;0.57;0.50;;;14.60;82.30;;;;;;4189188;28;20072;-72
2021/12/04 01:49:40;;;;;;;0.60;0.60;;;14.60;82.20;;;;;;4188564;28;20301;-71
2021/12/04 01:51:43;;;;;;;0.28;0.28;;;14.60;82.50;;;;;;4184572;28;20337;-71
2021/12/04 01:53:46;;;;;;;0.82;0.47;;;14.60;82.20;;;;;;4188849;28;20116;-71
2021/12/04 01:55:51;;;;;;;0.80;0.50;;;14.70;82.50;;;;;;4189442;28;20108;-71
2021/12/04 01:57:56;;;;;;;1.65;0.60;;;14.70;82.20;;;;;;4189101;28;20116;-71
2021/12/04 01:59:59;;;;;;;1.10;0.52;;;14.70;82.00;;;;;;4189053;28;20099;-71
2021/12/04 02:02:03;;;;;;;0.65;0.45;;;14.70;82.00;;;;;;4172918;28;20088;-72
2021/12/04 02:04:07;;;;;;;0.50;0.40;;;14.70;82.40;;;;;;4179862;28;20107;-71
2021/12/04 02:06:10;;;;;;;0.60;0.50;;;14.70;82.90;;;;;;4188367;28;20069;-71
2021/12/04 02:08:15;;;;;;;0.60;0.40;;;14.70;82.50;;;;;;4189529;28;20389;-71
2021/12/04 02:10:18;;;;;;;0.50;0.50;;;14.70;82.90;;;;;;4171317;28;20465;-72
2021/12/04 02:12:21;;;;;;;0.20;0.20;;;14.70;82.50;;;;;;4189177;28;20076;-71
2021/12/04 02:14:25;;;;;;;0.30;0.30;;;14.70;82.20;;;;;;4189272;28;20069;-72
2021/12/04 02:16:28;;;;;;;0.40;0.40;;;14.70;82.50;;;;;;4171790;28;20137;-72
2021/12/04 02:18:31;;;;;;;1.02;0.60;;;14.70;82.70;;;;;;4189421;28;20295;-71
2021/12/04 02:20:36;;;;;;;0.80;0.30;;;14.80;83.00;;;;;;4188308;28;20075;-71
2021/12/04 02:22:39;;;;;;;0.63;0.40;;;14.80;83.40;;;;;;4188987;28;20389;-71
2021/12/04 02:24:43;;;;;;;0.60;0.50;;;14.70;83.20;;;;;;4175040;28;20400;-71
2021/12/04 02:26:46;;;;;;;0.82;0.40;;;14.70;83.20;;;;;;4189994;28;20068;-72
2021/12/04 02:28:52;;;;;;;0.90;0.47;;;14.70;83.20;;;;;;4190067;28;20072;-71
2021/12/04 02:30:55;;;;;;;1.17;0.57;;;14.80;82.90;;;;;;4189428;28;20079;-71
2021/12/04 02:32:59;;;;;;;1.88;0.60;;;14.80;83.10;;;;;;4189008;28;20079;-70
2021/12/04 02:35:03;;;;;;;0.77;0.40;;;14.80;82.50;;;;;;4188336;28;20285;-71
2021/12/04 02:37:08;;;;;;;0.38;0.38;;;14.80;82.70;;;;;;4171498;28;20116;-71
2021/12/04 02:39:21;;;;;;;0.55;0.43;;;14.80;82.50;;;;;;4188851;28;20131;-71
2021/12/04 02:41:24;;;;;;;0.85;0.55;;;14.80;81.90;;;;;;4188679;28;20456;-71
2021/12/04 02:43:31;;;;;;;0.88;0.35;;;14.80;81.90;;;;;;4188995;28;20398;-71
2021/12/04 02:45:34;;;;;;;0.70;0.40;;;14.80;81.90;;;;;;4188436;28;20064;-71
2021/12/04 02:47:37;;;;;;;0.40;0.30;;;14.80;82.90;;;;;;4188641;28;20095;-72
2021/12/04 02:49:41;;;;;;;0.40;0.40;;;14.80;82.10;;;;;;4188583;28;20073;-72
2021/12/04 02:51:44;;;;;;;0.63;0.40;;;14.80;81.70;;;;;;4187916;28;20068;-71
2021/12/04 02:53:48;;;;;;;0.47;0.43;;;14.80;81.90;;;;;;4180861;28;20286;-70
2021/12/04 02:55:53;;;;;;;2.67;0.45;;;14.80;81.90;;;;;;4186701;28;20117;-71
2021/12/04 02:57:56;;;;;;;0.90;0.30;;;14.80;82.10;;;;;;4188739;28;20471;-71
2021/12/04 02:59:59;;;;;;;1.25;0.52;;;14.80;82.30;;;;;;4188025;28;20116;-72
2021/12/04 03:02:03;;;;;;;1.85;0.47;;;14.80;82.10;;;;;;4188228;28;20079;-71
2021/12/04 03:04:07;;;;;;;0.38;0.35;;;14.80;82.70;;;;;;4188327;28;20072;-71
2021/12/04 03:06:11;;;;;;;0.93;0.40;;;14.90;82.20;;;;;;4187896;28;20357;-71
2021/12/04 03:08:14;;;;;;;2.22;0.40;;;14.90;81.90;;;;;;4188437;28;20073;-71
2021/12/04 03:10:18;;;;;;;0.45;0.30;;;14.80;81.70;;;;;;4188468;28;20120;-71
2021/12/04 03:12:25;;;;;;;1.77;0.68;;;14.90;81.90;;;;;;4187859;28;20517;-70
2021/12/04 03:14:28;;;;;;;0.90;0.35;;;14.90;81.90;;;;;;4154606;28;20081;-72
2021/12/04 03:16:32;;;;;;;1.35;0.47;;;14.90;81.60;;;;;;4179438;28;20072;-73
2021/12/04 03:18:35;;;;;;;0.50;0.40;;;14.90;81.80;;;;;;4188661;28;20080;-70
2021/12/04 03:20:42;;;;;;;1.20;0.32;;;14.90;81.70;;;;;;4189174;28;20532;-71
2021/12/04 03:22:47;;;;;;;0.70;0.40;;;14.90;81.90;;;;;;4187241;28;20375;-71
2021/12/04 03:24:52;;;;;;;1.38;0.45;;;14.90;81.60;;;;;;4183444;28;20084;-71
2021/12/04 03:26:56;;;;;;;0.60;0.52;;;14.90;82.00;;;;;;4186906;28;20123;-71
2021/12/04 03:29:03;;;;;;;1.50;0.55;;;14.90;82.00;;;;;;4187490;28;20129;-71
2021/12/04 03:31:13;;;;;;;0.68;0.47;;;14.90;81.60;;;;;;4188124;28;20084;-71
2021/12/04 03:40:33;;;;;;;1.00;0.45;;;14.90;81.80;;;;;;4187757;28;20068;-71
2021/12/04 03:42:36;;;;;;;0.90;0.55;;;14.90;82.00;;;;;;4187656;28;20075;-71
2021/12/04 03:44:40;;;;;;;0.90;0.40;;;14.90;82.00;;;;;;4188028;28;20321;-71
2021/12/04 03:46:45;;;;;;;1.70;0.50;;;14.90;81.80;;;;;;4187716;28;20064;-71
2021/12/04 03:50:51;;;;;;;3.00;0.60;;;14.90;81.40;;;;;;4187300;28;20296;-71
2021/12/04 03:52:54;;;;;;;1.17;0.50;;;14.90;81.80;;;;;;4187475;28;20086;-70
2021/12/04 03:54:57;;;;;;;0.80;0.45;;;14.90;81.70;;;;;;4177896;28;20298;-72
2021/12/04 03:57:03;;;;;;;1.10;0.50;;;14.90;81.70;;;;;;4170742;28;20120;-72
2021/12/04 03:59:08;;;;;;;0.20;0.20;;;15.00;81.40;;;;;;4183021;28;20301;-71
2021/12/04 04:01:11;;;;;;;1.67;0.47;;;15.00;81.20;;;;;;4187946;28;20237;-71
2021/12/04 04:03:15;;;;;;;1.30;0.40;;;15.00;81.20;;;;;;4186659;28;20433;-72
2021/12/04 04:05:18;;;;;;;1.13;0.65;;;15.00;81.20;;;;;;4187321;28;20053;-71
2021/12/04 04:07:21;;;;;;;2.60;0.50;;;15.00;81.40;;;;;;4188113;28;20120;-71
2021/12/04 04:09:24;;;;;;;0.32;0.30;;;14.90;81.20;;;;;;4184928;28;20083;-73
2021/12/04 04:11:27;;;;;;;1.48;0.38;;;15.00;81.00;;;;;;4188973;28;20076;-75
2021/12/04 04:13:30;;;;;;;2.08;0.55;;;15.00;81.20;;;;;;4187870;28;20116;-73
2021/12/04 04:15:35;;;;;;;0.77;0.47;;;15.00;80.90;;;;;;4187922;28;20420;-72
2021/12/04 04:17:47;;;;;;;1.85;0.73;;;15.00;80.60;;;;;;4187691;28;20144;-72
2021/12/04 04:19:50;;;;;;;2.13;0.40;;;15.00;80.70;;;;;;4186772;28;20144;-71
2021/12/04 04:21:58;;;;;;;2.35;0.63;;;15.00;81.00;;;;;;4187525;28;20473;-71
2021/12/04 04:24:01;;;;;;;0.95;0.40;;;15.00;80.90;;;;;;4186927;28;20364;-72
2021/12/04 04:26:04;;;;;;;1.90;0.45;;;15.00;80.50;;;;;;4177263;28;20350;-71
2021/12/04 04:28:07;;;;;;;1.42;0.40;;;15.00;80.30;;;;;;4171564;28;20112;-71
2021/12/04 04:30:15;;;;;;;1.38;0.50;;;15.00;80.50;;;;;;4189473;28;20088;-71
2021/12/04 04:32:20;;;;;;;4.57;0.65;;;15.00;80.20;;;;;;4190740;28;20072;-71
2021/12/04 04:34:28;;;;;;;0.60;0.40;;;15.00;80.30;;;;;;4190087;28;20068;-70
2021/12/04 04:38:45;;;;;;;1.23;0.32;;;15.00;80.10;;;;;;4174210;28;20072;-71
2021/12/04 04:57:35;;;;;;;1.45;0.50;;;15.00;80.90;;;;;;4174548;28;20116;-71
2021/12/04 05:11:36;;;;;;;1.35;0.50;;;15.00;81.10;;;;;;4172078;28;20116;-71
2021/12/04 05:13:40;;;;;;;1.70;0.50;;;15.00;80.50;;;;;;4173840;28;20104;-71
2021/12/04 05:18:07;;;;;;;0.63;0.40;;;15.00;80.40;;;;;;4171142;28;20069;-71
2021/12/04 05:20:18;;;;;;;0.75;0.38;;;15.10;80.30;;;;;;4173552;28;20116;-72
2021/12/04 05:22:22;;;;;;;2.13;0.50;;;15.00;80.30;;;;;;4173271;28;20120;-71
2021/12/04 05:24:25;;;;;;;1.00;0.30;;;15.00;80.10;;;;;;4179847;28;20080;-71
2021/12/04 05:26:29;;;;;;;0.80;0.30;;;15.00;80.00;;;;;;4173250;28;20069;-71
2021/12/04 05:28:32;;;;;;;1.00;0.40;;;15.10;80.10;;;;;;4173727;28;20080;-72
2021/12/04 05:30:36;;;;;;;0.88;0.40;;;15.10;80.10;;;;;;4173269;28;20394;-71
2021/12/04 05:32:39;;;;;;;2.05;0.57;;;15.10;80.20;;;;;;4173321;28;20072;-72
2021/12/04 05:34:42;;;;;;;1.05;0.35;;;15.00;80.20;;;;;;4176051;28;20073;-71
2021/12/04 05:36:47;;;;;;;1.70;0.50;;;15.10;79.90;;;;;;4184381;28;20064;-71
2021/12/04 05:38:50;;;;;;;0.93;0.38;;;15.00;80.60;;;;;;4176840;28;20117;-71
2021/12/04 05:40:53;;;;;;;1.23;0.50;;;15.00;79.80;;;;;;4173392;28;20092;-71
2021/12/04 05:43:03;;;;;;;1.90;0.45;;;15.10;79.80;;;;;;4184128;28;20437;-72
2021/12/04 05:45:14;;;;;;;0.52;0.30;;;15.10;79.70;;;;;;4173579;28;20278;-71
2021/12/04 05:47:43;;;;;;;1.25;0.50;;;15.10;79.50;;;;;;4183500;28;20080;-72
2021/12/04 05:49:58;;;;;;;;;;;15.10;79.40;;;;;;4158199;28;20122;-71
2021/12/04 05:56:24;;;;;;;1.58;0.40;;;15.10;79.90;;;;;;4188133;28;20069;-71
2021/12/04 05:58:29;;;;;;;1.17;0.50;;;15.10;79.70;;;;;;4178198;28;20094;-72
2021/12/04 06:00:32;;;;;;;0.50;0.40;;;15.10;79.60;;;;;;4188914;28;20392;-73
2021/12/04 06:02:35;;;;;;;2.35;0.40;;;15.10;79.50;;;;;;4180562;28;20053;-72
2021/12/04 06:04:38;;;;;;;0.82;0.40;;;15.10;79.70;;;;;;4172419;28;20069;-71
2021/12/04 06:06:43;;;;;;;0.82;0.40;;;15.10;79.40;;;;;;4173557;28;20071;-71
2021/12/04 06:08:48;;;;;;;0.40;0.32;;;15.10;79.40;;;;;;4183315;28;20112;-71
2021/12/04 06:10:52;;;;;;;0.28;0.28;;;15.10;79.30;;;;;;4172769;28;20300;-71
2021/12/04 06:12:55;;;;;;;0.43;0.40;;;15.10;79.10;;;;;;4180935;28;20390;-72
2021/12/04 06:15:00;;;;;;;0.70;0.47;;;15.10;79.40;;;;;;4176734;28;20313;-71
2021/12/04 06:17:03;;;;;;;1.67;0.40;;;15.10;79.40;;;;;;4175820;28;20258;-70
2021/12/04 06:19:12;;;;;;;0.75;0.40;;;15.10;79.30;;;;;;4182037;28;20112;-71
2021/12/04 06:23:37;;;;;;;0.75;0.30;;;15.10;79.30;;;;;;4178247;28;20080;-71
2021/12/04 06:25:41;;;;;;;0.45;0.22;;;15.10;79.20;;;;;;4175702;28;20112;-70
2021/12/04 06:27:45;;;;;;;1.13;0.30;;;15.10;79.20;;;;;;4175262;28;20073;-71
2021/12/04 06:29:48;;;;;;;0.30;0.15;;;15.10;79.30;;;;;;4182322;28;20108;-71
2021/12/04 06:31:51;;;;;;;1.42;0.52;;;15.10;79.30;;;;;;4173037;28;20100;-71
2021/12/04 06:33:54;;;;;;;1.17;0.50;;;15.10;79.20;;;;;;4173572;28;20334;-72
2021/12/04 06:35:57;;;;;;;1.40;0.47;;;15.10;79.30;;;;;;4188189;28;20119;-71
2021/12/04 06:38:01;;;;;;;0.50;0.30;;;15.10;79.10;;;;;;4187946;28;20068;-72
2021/12/04 06:40:12;;;;;;;0.63;0.40;;;15.10;79.20;;;;;;4180369;28;20076;-71
2021/12/04 06:42:17;;;;;;;1.05;0.25;;;15.10;79.20;;;;;;4190012;28;20084;-71
2021/12/04 06:44:20;;;;;;;0.65;0.32;;;15.20;79.30;;;;;;4177541;28;20073;-71
2021/12/04 06:46:24;;;;;;;0.63;0.47;;;15.10;79.10;;;;;;4188152;28;20073;-72
2021/12/04 06:48:36;;;;;;;1.05;0.35;;;15.10;79.30;;;;;;4186376;28;20104;-73
2021/12/04 06:52:48;;;;;;;1.00;0.30;;;15.20;79.60;;;;;;4155844;28;20078;-71
2021/12/04 06:54:57;;;;;;;0.73;0.40;;;15.10;79.50;;;;;;4175901;28;20386;-71
2021/12/04 06:57:00;;;;;;;0.50;0.30;;;15.20;79.30;;;;;;4188688;28;20112;-71
2021/12/04 06:59:09;;;;;;;1.38;0.47;;;15.10;79.20;;;;;;4183514;28;20072;-72
2021/12/04 07:01:12;;;;;;;0.75;0.32;;;15.10;79.20;;;;;;4181977;28;20079;-71
2021/12/04 07:03:16;;;;;;;0.47;0.40;;;15.20;79.30;;;;;;4187671;28;20053;-71
2021/12/04 07:05:20;;;;;;;0.30;0.30;;;15.10;79.30;;;;;;4177063;28;20069;-72
2021/12/04 07:07:23;;;;;;;1.52;0.47;;;15.10;79.20;;;;;;4188298;28;20064;-71
2021/12/04 07:09:26;;;;;;;0.60;0.40;;;15.20;79.20;;;;;;4183085;28;20109;-71
2021/12/04 07:11:29;;;;;;;0.68;0.30;;;15.20;79.10;;;;;;4180884;28;20072;-71
2021/12/04 07:13:32;;;;;;;0.60;0.50;;;15.10;79.00;;;;;;4187712;28;20075;-72
2021/12/04 07:15:42;;;;;;;0.80;0.40;;;15.20;79.00;;;;;;4175312;28;20108;-71
2021/12/04 07:17:45;;;;;;;0.28;0.20;;;15.20;79.00;;;;;;4176084;28;20354;-71
2021/12/04 07:19:48;;;;;;;0.77;0.30;;;15.20;79.00;;;;;;4176545;28;20112;-71
2021/12/04 07:21:51;;;;;;;1.38;0.63;;;15.20;78.90;;;;;;4170383;28;20121;-71
2021/12/04 07:23:54;;;;;;;1.15;0.52;;;15.20;78.90;;;;;;4183539;28;20064;-71
2021/12/04 07:25:58;;;;;;;1.63;0.40;;;15.20;78.80;;;;;;4183651;28;20095;-71
2021/12/04 07:28:01;;;;;;;0.63;0.28;;;15.20;78.90;;;;;;4154721;28;20255;-72
2021/12/04 07:30:06;;;;;;;1.10;0.30;;;15.20;78.80;;;;;;4177054;28;20108;-73
2021/12/04 07:32:10;;;;;;;0.60;0.30;;;15.20;78.80;;;;;;4179930;28;20049;-72
2021/12/04 07:34:14;;;;;;;0.85;0.35;;;15.20;78.70;;;;;;4171740;28;20075;-71
2021/12/04 07:36:17;;;;;;;1.30;0.40;;;15.20;78.70;;;;;;4181456;28;20113;-71
2021/12/04 07:38:20;;;;;;;0.57;0.35;;;15.20;78.70;;;;;;4171891;28;20082;-71
2021/12/04 07:40:24;;;;;;;0.85;0.25;;;15.20;78.80;;;;;;4175448;28;20360;-72
2021/12/04 07:42:27;;;;;;;0.43;0.32;;;15.20;78.80;;;;;;4178931;28;20117;-71
2021/12/04 07:44:30;;;;;;;0.75;0.38;;;15.20;78.90;;;;;;4171596;28;20144;-71
2021/12/04 07:46:33;;;;;;;1.58;0.50;;;15.20;78.90;;;;;;4185961;28;20076;-72
2021/12/04 07:48:38;;;;;;;0.50;0.38;;;15.20;78.80;;;;;;4154411;28;20121;-71
2021/12/04 07:50:41;;;;;;;0.75;0.30;;;15.20;78.90;;;;;;4175118;28;20074;-71
2021/12/04 07:52:44;;;;;;;0.68;0.43;;;15.20;79.00;;;;;;4179736;28;20069;-71
2021/12/04 07:54:49;;;;;;;0.95;0.40;;;15.20;79.00;;;;;;4171687;28;20076;-71
2021/12/04 07:56:52;;;;;;;;;;;15.20;79.10;;;;;;4175881;28;20300;-71
2021/12/04 07:58:55;;;;;;;0.45;0.30;;;15.20;79.30;;;;;;4155126;28;19980;-71
2021/12/04 08:00:58;;;;;;;0.57;0.30;;;15.20;79.30;;;;;;4164869;28;20112;-71
2021/12/04 08:03:01;;;;;;;0.90;0.40;;;15.20;79.10;;;;;;4179652;28;20053;-71
2021/12/04 08:05:08;;;;;;;0.80;0.50;;;15.20;79.20;;;;;;4173475;28;20338;-70
2021/12/04 08:07:11;;;;;;;0.52;0.30;;;15.20;79.20;;;;;;4186725;28;20408;-71
2021/12/04 08:09:14;;;;;;;0.88;0.50;;;15.20;79.20;;;;;;4174846;28;20064;-71
2021/12/04 08:11:17;;;;;;;1.15;0.40;;;15.20;79.30;;;;;;4177873;28;20290;-71
2021/12/04 08:13:20;;;;;;;1.50;0.60;;;15.20;79.40;;;;;;4183445;28;20298;-71
2021/12/04 08:15:23;;;;;;;3.15;0.82;;;15.20;79.60;;;;;;4174560;28;20072;-71
2021/12/04 08:17:26;;;;;;;0.52;0.20;;;15.20;79.50;;;;;;4170760;28;20065;-71
2021/12/04 08:19:29;;;;;;;0.88;0.40;;;15.20;79.70;;;;;;4185197;28;20116;-73
2021/12/04 08:21:35;;;;;;;1.33;0.40;;;15.20;79.70;;;;;;4183130;28;20120;-72
2021/12/04 08:23:38;;;;;;;3.10;0.60;;;15.20;79.90;;;;;;4179925;28;20072;-72
2021/12/04 08:25:42;;;;;;;1.25;0.60;;;15.20;80.20;;;;;;4173898;28;20053;-74
2021/12/04 08:27:46;;;;;;;2.88;0.65;;;15.20;80.70;;;;;;4178258;28;20108;-73
2021/12/04 08:29:49;;;;;;;2.88;0.50;;;15.20;81.30;;;;;;4190339;28;20071;-75
2021/12/04 08:31:52;;;;;;;4.88;0.30;;;15.20;81.50;;;;;;4171522;28;20097;-73
2021/12/04 08:33:55;;;;;;;1.83;0.50;;;15.20;81.80;;;;;;4181598;28;20362;-73
2021/12/04 08:35:58;;;;;;;1.48;0.50;;;15.20;81.90;;;;;;4191281;28;20320;-71
2021/12/04 08:38:03;;;;;;;2.13;0.60;;;15.30;81.90;;;;;;4190734;28;20060;-74
2021/12/04 08:40:11;;;;;;;1.83;0.60;;;15.30;82.00;;;;;;4157462;28;20062;-76
2021/12/04 08:42:14;;;;;;;3.75;0.77;;;15.20;82.10;;;;;;4174228;28;20054;-73
2021/12/04 08:44:19;;;;;;;1.77;0.60;;;15.20;82.20;;;;;;4190861;28;20072;-76
2021/12/04 08:46:23;;;;;;;3.15;0.80;;;15.20;82.50;;;;;;4191323;28;20285;-75
2021/12/04 08:48:27;;;;;;;1.40;0.40;;;15.30;83.00;;;;;;4191247;28;20083;-75
2021/12/04 08:50:32;;;;;;;2.53;1.02;;;15.30;83.20;;;;;;4197049;28;20044;-75
2021/12/04 08:52:35;;;;;;;4.18;0.90;;;15.30;83.10;;;;;;4173745;28;20101;-75
2021/12/04 08:54:39;;;;;;;2.50;1.10;;;15.30;83.10;;;;;;4192841;28;20060;-73
2021/12/04 08:56:43;;;;;;;5.88;1.60;;;15.30;82.90;;;;;;4192728;28;20054;-73
2021/12/04 08:58:46;;;;;;;5.32;1.00;;;15.30;83.70;;;;;;4192859;28;20056;-75
2021/12/04 09:00:52;;;;;;;5.63;1.25;;;15.30;83.40;;;;;;4192278;28;20069;-71
2021/12/04 09:02:56;;;;;;;8.52;2.38;;;15.30;83.30;;;;;;4190571;28;20120;-75
2021/12/04 09:05:00;;;;;;;4.45;1.33;;;15.30;83.20;;;;;;4190701;28;20067;-72
2021/12/04 09:07:04;;;;;;;3.00;0.90;;;15.30;83.40;;;;;;4191009;28;20328;-72
2021/12/04 09:09:10;;;;;;;3.40;1.17;;;15.40;83.30;;;;;;4173212;28;20077;-73
2021/12/04 09:11:19;;;;;;;4.95;1.50;;;15.30;83.10;;;;;;4191708;28;20053;-72
2021/12/04 09:13:24;;;;;;;5.70;1.70;;;15.40;83.10;;;;;;4191347;28;20064;-72
2021/12/04 09:15:31;;;;;;;5.75;1.85;;;15.40;83.10;;;;;;4190559;28;20338;-71
2021/12/04 09:17:34;;;;;;;6.57;1.38;;;15.40;83.40;;;;;;4190068;28;20120;-72
2021/12/04 09:19:37;;;;;;;5.28;1.52;;;15.40;83.50;;;;;;4172589;28;20120;-71
2021/12/04 09:21:41;;;;;;;4.20;1.30;;;15.40;83.40;;;;;;4156754;28;20077;-72
2021/12/04 09:23:50;;;;;;;3.85;1.30;;;15.40;83.80;;;;;;4179093;28;20120;-71
2021/12/04 09:25:56;;;;;;;9.30;1.75;;;15.50;83.20;;;;;;4188398;28;20069;-72
2021/12/04 09:28:12;;;;;;;7.90;1.30;;;15.50;83.40;;;;;;4190417;28;20068;-69
2021/12/04 09:31:14;;;;;;;;;;;15.50;84.80;;;;;;4188051;28;20280;-72
2021/12/04 10:00:11;;;;;;;9.57;1.30;;;15.50;82.00;;;;;;4173944;28;20061;-75
2021/12/04 10:01:46;;;;;;;6.93;1.00;;;15.60;81.80;;;;;;4149766;28;20124;-76
2021/12/04 10:33:41;;;;;;;7.93;1.20;;;15.70;80.10;;;;;;4173322;28;20116;-76
2021/12/04 10:35:46;;;;;;;5.32;1.00;;;15.70;80.00;;;;;;4163828;28;20117;-77
2021/12/04 10:37:53;;;;;;;9.25;1.35;;;15.70;79.90;;;;;;4184149;28;20049;-74
2021/12/04 10:39:59;;;;;;;25.67;2.45;;;15.80;80.40;;;;;;4155370;28;20308;-75
2021/12/04 10:42:05;;;;;;;17.90;2.40;;;15.80;81.50;;;;;;4159484;28;20361;-75
2021/12/04 10:44:14;;;;;;;11.48;2.03;;;15.80;81.60;;;;;;4186156;28;20115;-75
2021/12/04 10:46:21;;;;;;;7.35;1.75;;;15.80;81.40;;;;;;4184843;28;20073;-75
2021/12/04 10:48:28;;;;;;;16.83;2.05;;;15.80;81.00;;;;;;4164746;28;20049;-77
2021/12/04 10:54:51;;;;;;;21.50;2.38;;;15.80;80.50;;;;;;4157415;28;20081;-75
2021/12/04 10:57:26;;;;;;;20.35;1.85;;;15.80;80.80;;;;;;4170193;28;20129;-75
2021/12/04 10:59:42;;;;;;;26.65;2.67;;;15.80;80.80;;;;;;4178233;28;20148;-75
2021/12/04 11:02:08;;;;;;;22.17;2.25;;;15.80;80.80;;;;;;4174708;28;20108;-76
2021/12/04 11:20:54;;;;;;;17.75;2.15;;;15.80;79.70;;;;;;4186984;28;20412;-76
2021/12/04 11:23:21;;;;;;;23.08;2.42;;;15.80;79.80;;;;;;4185794;28;20105;-72
2021/12/04 11:37:33;;;;;;;168.65;51.80;;;15.90;82.10;;;;;;4188898;28;20111;-75
2021/12/04 11:41:59;;;;;;;121.43;39.25;;;15.90;81.90;;;;;;4188234;28;20108;-75
2021/12/04 11:44:11;;;;;;;110.55;35.13;;;15.80;81.60;;;;;;4179403;28;20056;-75
2021/12/04 11:48:28;;;;;;;91.95;27.83;;;15.90;81.60;;;;;;4175585;28;20108;-76
2021/12/04 11:50:34;;;;;;;74.63;26.00;;;15.90;81.40;;;;;;4187740;28;20491;-74
2021/12/04 11:52:45;;;;;;;88.63;25.65;;;15.90;81.40;;;;;;4154200;28;20042;-74
2021/12/04 11:54:53;;;;;;;75.32;25.05;;;16.00;81.80;;;;;;4173044;28;20041;-75
2021/12/04 11:57:02;;;;;;;74.15;23.92;;;16.00;81.60;;;;;;4155640;28;20289;-74
2021/12/04 11:59:05;;;;;;;72.80;23.30;;;16.10;82.40;;;;;;4151483;28;20101;-75
2021/12/04 12:01:21;;;;;;;70.10;21.92;;;16.10;82.60;;;;;;4180939;28;20154;-75
2021/12/04 12:03:27;;;;;;;60.65;19.50;;;16.10;81.90;;;;;;4169109;28;20045;-75
2021/12/04 12:05:30;;;;;;;49.38;18.10;;;16.20;81.40;;;;;;4176743;28;20116;-75
2021/12/04 12:07:34;;;;;;;52.72;16.27;;;16.20;80.80;;;;;;4188402;28;20068;-76
2021/12/04 12:09:39;;;;;;;42.90;15.30;;;16.20;80.50;;;;;;4181608;28;20100;-75
2021/12/04 12:11:54;;;;;;;43.28;14.73;;;16.30;80.10;;;;;;4183343;28;20404;-75
2021/12/04 12:14:00;;;;;;;44.13;13.82;;;16.30;80.00;;;;;;4184892;28;21008;-74
2021/12/04 12:16:07;;;;;;;37.22;13.07;;;16.40;80.40;;;;;;4183057;28;20105;-75
2021/12/04 12:18:13;;;;;;;38.65;14.00;;;16.40;80.60;;;;;;4171512;28;20121;-74
2021/12/04 12:20:30;;;;;;;42.83;11.93;;;16.40;80.70;;;;;;4181484;28;20352;-75
2021/12/04 12:22:57;;;;;;;31.48;11.35;;;16.50;80.40;;;;;;4174004;28;20241;-75
2021/12/04 12:31:43;;;;;;;29.65;10.05;;;16.50;80.70;;;;;;4175035;28;20365;-75
2021/12/04 12:37:26;;;;;;;27.10;7.47;;;16.50;78.90;;;;;;4182604;28;20369;-73
2021/12/04 12:39:29;;;;;;;19.33;6.15;;;16.50;78.50;;;;;;4187225;28;20140;-74
2021/12/04 12:41:37;;;;;;;24.63;6.80;;;16.50;77.60;;;;;;4180249;28;20116;-74
2021/12/04 12:43:47;;;;;;;19.17;5.65;;;16.50;77.50;;;;;;4171045;28;20062;-73
2021/12/04 12:45:56;;;;;;;19.23;5.43;;;16.50;77.60;;;;;;4172151;28;20120;-74
2021/12/04 12:48:02;;;;;;;20.48;5.05;;;16.50;77.10;;;;;;4182980;28;20108;-74
2021/12/04 12:50:08;;;;;;;15.48;4.85;;;16.50;76.70;;;;;;4186038;28;20108;-74
2021/12/04 12:52:20;;;;;;;13.80;4.40;;;16.50;76.40;;;;;;4174723;28;20069;-74
2021/12/04 12:54:26;;;;;;;16.83;4.57;;;16.50;76.60;;;;;;4175733;28;20067;-73
2021/12/04 12:56:32;;;;;;;14.05;4.00;;;16.50;76.00;;;;;;4185070;28;20072;-74
2021/12/04 12:58:53;;;;;;;14.13;4.03;;;16.60;76.40;;;;;;4177976;28;20113;-74
2021/12/04 13:13:00;;;;;;;11.50;3.20;;;17.10;73.70;;;;;;4184714;28;20076;-74
2021/12/04 13:15:03;;;;;;;15.35;3.15;;;17.20;73.30;;;;;;4174316;28;20072;-74
2021/12/04 13:17:10;;;;;;;17.58;3.28;;;17.30;73.00;;;;;;4161581;28;20082;-75
2021/12/04 13:19:15;;;;;;;15.45;3.42;;;17.50;72.40;;;;;;4186654;28;20068;-72
2021/12/04 13:21:19;;;;;;;15.15;3.33;;;17.50;72.00;;;;;;4188823;28;20134;-73
2021/12/04 13:23:22;;;;;;;14.48;2.92;;;17.60;72.10;;;;;;4179287;28;20116;-73
2021/12/04 13:25:25;;;;;;;13.90;3.65;;;17.70;71.80;;;;;;4173569;28;20061;-74
2021/12/04 13:29:32;;;;;;;12.15;3.15;;;17.80;72.00;;;;;;4177274;28;20521;-76
2021/12/04 13:31:39;;;;;;;13.55;3.08;;;17.70;71.80;;;;;;4176528;28;20112;-73
2021/12/04 13:33:45;;;;;;;11.38;2.20;;;17.70;72.50;;;;;;4186284;28;20056;-75
2021/12/04 13:35:49;;;;;;;18.20;2.95;;;17.60;73.50;;;;;;4185514;28;20067;-73
2021/12/04 13:38:00;;;;;;;18.77;3.20;;;17.60;73.80;;;;;;4185892;28;20064;-72
2021/12/04 13:40:07;;;;;;;9.73;2.70;;;17.50;74.30;;;;;;4174930;28;20049;-75
2021/12/04 13:42:10;;;;;;;14.40;3.60;;;17.50;73.40;;;;;;4159054;28;20352;-74
2021/12/04 13:44:16;;;;;;;12.70;2.95;;;17.40;73.20;;;;;;4183642;28;20072;-74
2021/12/04 13:46:20;;;;;;;17.13;2.80;;;17.40;74.00;;;;;;4174072;28;20099;-74
2021/12/04 13:48:24;;;;;;;26.42;4.32;;;17.30;74.20;;;;;;4185208;28;20079;-73
2021/12/04 13:52:34;;;;;;;23.90;3.72;;;17.20;74.60;;;;;;4176912;28;20229;-77